| time (UTC) | temp F | wind direction | speed MPH | gust MPH | rain 1hr in | rain 24hr in | rain mn in | humidity % | barometer mb |
| 20260508012924 | 64 | 256 | 4.0 | 8.0 | 0.00 | 0.01 | 0.01 | 99 | 1027.0 |
| 20260508011924 | 65 | 289 | 5.0 | 9.0 | 0.00 | 0.01 | 0.01 | 99 | 1027.3 |
| 20260508010920 | 64 | 236 | 2.0 | 4.0 | 0.00 | 0.01 | 0.01 | 99 | 1027.2 |
| 20260508005921 | 64 | 313 | 3.0 | 6.0 | 0.00 | 0.01 | 0.01 | 99 | 1027.0 |
| 20260508004920 | 65 | 318 | 4.0 | 9.0 | 0.00 | 0.01 | 0.01 | 99 | 1027.2 |
| 20260508003921 | 65 | 248 | 5.0 | 11.0 | 0.00 | 0.01 | 0.01 | 99 | 1027.3 |
| 20260508002921 | 65 | 290 | 7.0 | 11.0 | 0.00 | 0.01 | 0.01 | 99 | 1027.4 |
| 20260508001921 | 65 | 265 | 5.0 | 10.0 | 0.00 | 0.01 | 0.01 | 99 | 1027.3 |
| 20260508000921 | 65 | 282 | 7.0 | 15.0 | 0.00 | 0.01 | 0.01 | 99 | 1027.6 |
| 20260507235919 | 66 | 272 | 6.0 | 10.0 | 0.00 | 0.01 | 0.01 | 99 | 1027.5 |
| 20260507234919 | 65 | 271 | 6.0 | 13.0 | 0.00 | 0.01 | 0.01 | 99 | 1027.6 |
| 20260507233919 | 65 | 344 | 4.0 | 18.0 | 0.00 | 0.01 | 0.01 | 99 | 1027.4 |
| 20260507232918 | 65 | 290 | 4.0 | 18.0 | 0.00 | 0.01 | 0.01 | 99 | 1027.5 |
| 20260507232356 | 66 | 275 | 6.0 | 13.0 | 0.00 | 0.01 | 0.01 | 99 | 1028.0 |
| 20260507231400 | 66 | 300 | 7.0 | 15.0 | 0.00 | 0.01 | 0.01 | 99 | 1027.8 |
| 20260507225917 | 66 | 319 | 10.0 | 22.0 | 0.00 | 0.01 | 0.01 | 99 | 1027.8 |
| 20260507225351 | 66 | 281 | 9.0 | 19.0 | 0.00 | 0.01 | 0.01 | 99 | 1028.0 |
| 20260507223917 | 66 | 306 | 8.0 | 19.0 | 0.00 | 0.01 | 0.01 | 99 | 1028.1 |
| 20260507222917 | 66 | 307 | 12.0 | 22.0 | 0.00 | 0.01 | 0.01 | 99 | 1028.1 |
| 20260507221918 | 67 | 332 | 7.0 | 16.0 | 0.00 | 0.01 | 0.01 | 99 | 1028.4 |
| 20260507220915 | 66 | 295 | 7.0 | 20.0 | 0.00 | 0.01 | 0.01 | 99 | 1028.4 |
| 20260507215912 | 66 | 311 | 12.0 | 22.0 | 0.01 | 0.01 | 0.01 | 99 | 1028.2 |
| 20260507214912 | 66 | 310 | 8.0 | 19.0 | 0.01 | 0.01 | 0.01 | 99 | 1028.1 |
| 20260507213912 | 65 | 333 | 8.0 | 15.0 | 0.01 | 0.01 | 0.01 | 99 | 1027.9 |
| 20260507212912 | 65 | 275 | 10.0 | 21.0 | 0.01 | 0.01 | 0.01 | 99 | 1027.6 |
| 20260507211912 | 65 | 247 | 13.0 | 26.0 | 0.01 | 0.01 | 0.01 | 99 | 1028.2 |
| 20260507210910 | 65 | 291 | 12.0 | 22.0 | 0.00 | 0.01 | 0.00 | 99 | 1027.9 |
| 20260507205909 | 65 | 339 | 7.0 | 15.0 | 0.00 | 0.00 | 0.00 | 99 | 1028.4 |
| 20260507204909 | 64 | 269 | 7.0 | 17.0 | 0.00 | 0.00 | 0.00 | 99 | 1028.4 |
| 20260507203909 | 63 | 347 | 9.0 | 18.0 | 0.00 | 0.00 | 0.00 | 99 | 1028.2 |
| 20260507202911 | 62 | 273 | 6.0 | 13.0 | 0.00 | 0.00 | 0.00 | 99 | 1028.4 |
| 20260507202346 | 62 | 303 | 6.0 | 11.0 | 0.00 | 0.00 | 0.00 | 99 | 1028.4 |
| 20260507200907 | 62 | 324 | 6.0 | 12.0 | 0.00 | 0.00 | 0.00 | 99 | 1028.4 |
| 20260507200349 | 62 | 3 | 6.0 | 12.0 | 0.00 | 0.00 | 0.00 | 99 | 1028.0 |
| 20260507194908 | 62 | 293 | 7.0 | 14.0 | 0.00 | 0.00 | 0.00 | 99 | 1027.6 |
| 20260507193908 | 63 | 344 | 6.0 | 15.0 | 0.00 | 0.00 | 0.00 | 99 | 1027.9 |
| 20260507192908 | 62 | 331 | 7.0 | 17.0 | 0.00 | 0.00 | 0.00 | 99 | 1028.0 |
| 20260507191905 | 62 | 317 | 5.0 | 13.0 | 0.00 | 0.00 | 0.00 | 99 | 1028.2 |
| 20260507190905 | 62 | 68 | 7.0 | 13.0 | 0.00 | 0.00 | 0.00 | 99 | 1028.6 |
| 20260507185906 | 62 | 346 | 9.0 | 15.0 | 0.00 | 0.00 | 0.00 | 99 | 1028.2 |
| 20260507184906 | 63 | 278 | 7.0 | 14.0 | 0.00 | 0.00 | 0.00 | 99 | 1028.4 |
| 20260507183906 | 63 | 340 | 6.0 | 12.0 | 0.00 | 0.00 | 0.00 | 99 | 1028.5 |
| 20260507182906 | 62 | 318 | 6.0 | 11.0 | 0.00 | 0.00 | 0.00 | 99 | 1028.2 |
| 20260507181903 | 62 | 347 | 4.0 | 9.0 | 0.00 | 0.00 | 0.00 | 99 | 1028.5 |
| 20260507180900 | 63 | 349 | 4.0 | 11.0 | 0.00 | 0.00 | 0.00 | 99 | 1028.7 |
| 20260507175901 | 61 | 162 | 6.0 | 12.0 | 0.00 | 0.00 | 0.00 | 99 | 1028.7 |
| 20260507175335 | 61 | 47 | 6.0 | 10.0 | 0.00 | 0.00 | 0.00 | 99 | 1028.6 |
| 20260507174336 | 60 | 275 | 5.0 | 12.0 | 0.00 | 0.00 | 0.00 | 99 | 1028.5 |
| 20260507172858 | 60 | 275 | 5.0 | 13.0 | 0.00 | 0.00 | 0.00 | 99 | 1028.4 |
| 20260507171859 | 60 | 276 | 5.0 | 14.0 | 0.00 | 0.00 | 0.00 | 99 | 1028.2 |
| 20260507170858 | 58 | 274 | 5.0 | 10.0 | 0.00 | 0.00 | 0.00 | 99 | 1028.0 |
| 20260507165857 | 58 | 297 | 6.0 | 13.0 | 0.00 | 0.00 | 0.00 | 99 | 1028.0 |
| 20260507164853 | 58 | 269 | 9.0 | 14.0 | 0.00 | 0.00 | 0.00 | 99 | 1027.8 |
| 20260507163853 | 58 | 272 | 7.0 | 15.0 | 0.00 | 0.00 | 0.00 | 99 | 1027.6 |
| 20260507162852 | 58 | 317 | 4.0 | 9.0 | 0.00 | 0.00 | 0.00 | 99 | 1027.8 |
| 20260507161853 | 57 | 211 | 6.0 | 11.0 | 0.00 | 0.00 | 0.00 | 99 | 1027.6 |
| 20260507160850 | 57 | 237 | 6.0 | 10.0 | 0.00 | 0.00 | 0.00 | 99 | 1027.5 |
| 20260507155850 | 56 | 241 | 6.0 | 11.0 | 0.00 | 0.00 | 0.00 | 99 | 1027.4 |
| 20260507154851 | 56 | 278 | 7.0 | 12.0 | 0.00 | 0.00 | 0.00 | 99 | 1027.4 |
| 20260507153847 | 56 | 297 | 7.0 | 13.0 | 0.00 | 0.00 | 0.00 | 99 | 1027.5 |
| 20260507153332 | 55 | 301 | 6.0 | 13.0 | 0.00 | 0.00 | 0.00 | 99 | 1027.4 |
| 20260507151847 | 55 | 283 | 7.0 | 11.0 | 0.00 | 0.00 | 0.00 | 99 | 1027.2 |
| 20260507151321 | 55 | 315 | 3.0 | 7.0 | 0.00 | 0.00 | 0.00 | 99 | 1027.4 |
| 20260507145848 | 54 | 122 | 6.0 | 13.0 | 0.00 | 0.00 | 0.00 | 99 | 1027.2 |
| 20260507144848 | 53 | 131 | 5.0 | 9.0 | 0.00 | 0.00 | 0.00 | 99 | 1027.0 |
| 20260507143845 | 52 | 4 | 3.0 | 9.0 | 0.00 | 0.00 | 0.00 | 99 | 1026.9 |
| 20260507142836 | 50 | 82 | 4.0 | 11.0 | 0.00 | 0.00 | 0.00 | 99 | 1026.8 |
| 20260507141836 | 48 | 309 | 3.0 | 5.0 | 0.00 | 0.00 | 0.00 | 99 | 1026.4 |
| 20260507141316 | 45 | 310 | 4.0 | 10.0 | 0.00 | 0.00 | 0.00 | 99 | 1026.3 |
| 20260507135832 | 44 | 301 | 3.0 | 7.0 | 0.00 | 0.00 | 0.00 | 99 | 1025.9 |
| 20260507134832 | 42 | 67 | 4.0 | 6.0 | 0.00 | 0.00 | 0.00 | 99 | 1025.6 |
| 20260507134318 | 40 | 293 | 2.0 | 6.0 | 0.00 | 0.00 | 0.00 | 99 | 1025.2 |
| 20260507132831 | 39 | 310 | 2.0 | 4.0 | 0.00 | 0.00 | 0.00 | 99 | 1025.1 |
| 20260507131832 | 37 | 345 | 2.0 | 4.0 | 0.00 | 0.00 | 0.00 | 99 | 1025.0 |
| 20260507130831 | 36 | 359 | 3.0 | 11.0 | 0.00 | 0.00 | 0.00 | 99 | 1024.9 |
| 20260507125832 | 34 | 338 | 2.0 | 3.0 | 0.00 | 0.00 | 0.00 | 99 | 1024.7 |
| 20260507124816 | 33 | 297 | 2.0 | 4.0 | 0.00 | 0.00 | 0.00 | 99 | 1024.6 |
| 20260507123817 | 32 | 319 | 1.0 | 4.0 | 0.00 | 0.00 | 0.00 | 99 | 1024.5 |
| 20260507122816 | 31 | 305 | 1.0 | 3.0 | 0.00 | 0.00 | 0.00 | 99 | 1024.4 |
| 20260507121807 | 30 | 273 | 4.0 | 10.0 | 0.00 | 0.00 | 0.00 | 99 | 1024.4 |
| 20260507120808 | 29 | 297 | 2.0 | 7.0 | 0.00 | 0.00 | 0.00 | 99 | 1024.2 |
| 20260507120246 | 29 | 333 | 3.0 | 12.0 | 0.00 | 0.00 | 0.00 | 99 | 1024.2 |
| 20260507114806 | 29 | 340 | 2.0 | 11.0 | 0.00 | 0.00 | 0.00 | 99 | 1024.2 |
| 20260507114242 | 29 | 309 | 3.0 | 9.0 | 0.00 | 0.00 | 0.00 | 99 | 1024.2 |
| 20260507112801 | 29 | 332 | 4.0 | 13.0 | 0.00 | 0.00 | 0.00 | 99 | 1024.2 |
| 20260507112235 | 29 | 323 | 4.0 | 12.0 | 0.00 | 0.00 | 0.00 | 99 | 1024.2 |
| 20260507110801 | 29 | 325 | 4.0 | 13.0 | 0.00 | 0.00 | 0.00 | 99 | 1024.2 |
| 20260507105801 | 29 | 306 | 4.0 | 11.0 | 0.00 | 0.00 | 0.00 | 99 | 1024.2 |
| 20260507104800 | 29 | 311 | 4.0 | 12.0 | 0.00 | 0.00 | 0.00 | 99 | 1024.2 |
| 20260507103801 | 28 | 312 | 4.0 | 11.0 | 0.00 | 0.00 | 0.00 | 99 | 1024.2 |
| 20260507102801 | 29 | 272 | 3.0 | 8.0 | 0.00 | 0.00 | 0.00 | 99 | 1024.2 |
| 20260507101802 | 29 | 41 | 2.0 | 9.0 | 0.00 | 0.00 | 0.00 | 99 | 1024.2 |
| 20260507100751 | 28 | 300 | 4.0 | 13.0 | 0.00 | 0.00 | 0.00 | 99 | 1024.1 |
| 20260507095751 | 28 | 313 | 5.0 | 13.0 | 0.00 | 0.00 | 0.00 | 99 | 1024.2 |
| 20260507095232 | 28 | 311 | 3.0 | 6.0 | 0.00 | 0.00 | 0.00 | 99 | 1024.2 |
| 20260507093748 | 28 | 295 | 2.0 | 4.0 | 0.00 | 0.00 | 0.00 | 99 | 1024.1 |
| 20260507093223 | 28 | 281 | 2.0 | 8.0 | 0.00 | 0.00 | 0.00 | 99 | 1024.2 |
| 20260507091740 | 28 | 248 | 2.0 | 7.0 | 0.00 | 0.00 | 0.00 | 99 | 1024.2 |
| 20260507091214 | 29 | 166 | 2.0 | 4.0 | 0.00 | 0.00 | 0.00 | 99 | 1024.2 |
| 20260507090216 | 29 | 350 | 2.0 | 4.0 | 0.00 | 0.00 | 0.00 | 99 | 1024.2 |
| 20260507084734 | 29 | 0 | 2.0 | 8.0 | 0.00 | 0.00 | 0.00 | 99 | 1024.2 |
| 20260507084218 | 29 | 315 | 3.0 | 11.0 | 0.00 | 0.00 | 0.00 | 99 | 1024.4 |
| 20260507082734 | 29 | 316 | 2.0 | 11.0 | 0.00 | 0.00 | 0.00 | 99 | 1024.4 |
| 20260507081734 | 29 | 348 | 2.0 | 4.0 | 0.00 | 0.00 | 0.00 | 99 | 1024.2 |
| 20260507080734 | 29 | 354 | 3.0 | 6.0 | 0.00 | 0.00 | 0.00 | 99 | 1024.4 |
| 20260507075722 | 29 | 346 | 3.0 | 7.0 | 0.00 | 0.00 | 0.00 | 99 | 1024.4 |
| 20260507074720 | 29 | 4 | 3.0 | 7.0 | 0.00 | 0.00 | 0.00 | 99 | 1024.4 |
| 20260507073711 | 29 | 9 | 5.0 | 9.0 | 0.00 | 0.00 | 0.00 | 99 | 1024.5 |
| 20260507072711 | 29 | 345 | 5.0 | 8.0 | 0.00 | 0.00 | 0.00 | 99 | 1024.5 |
| 20260507071710 | 29 | 331 | 5.0 | 17.0 | 0.00 | 0.00 | 0.00 | 99 | 1024.5 |
| 20260507070705 | 30 | 287 | 3.0 | 14.0 | 0.00 | 0.00 | 0.00 | 99 | 1024.5 |
| 20260507065704 | 30 | 339 | 2.0 | 3.0 | 0.00 | 0.00 | 0.00 | 99 | 1024.5 |
| 20260507064704 | 30 | 321 | 1.0 | 4.0 | 0.00 | 0.00 | 0.00 | 99 | 1024.5 |
| 20260507063651 | 31 | 282 | 2.0 | 5.0 | 0.00 | 0.00 | 0.00 | 99 | 1024.5 |
| 20260507062635 | 31 | 307 | 3.0 | 5.0 | 0.00 | 0.00 | 0.00 | 99 | 1024.6 |
| 20260507061636 | 31 | 315 | 3.0 | 5.0 | 0.00 | 0.00 | 0.00 | 99 | 1024.6 |
| 20260507060624 | 31 | 328 | 3.0 | 6.0 | 0.00 | 0.00 | 0.00 | 99 | 1024.7 |
| 20260507055620 | 31 | 338 | 2.0 | 4.0 | 0.00 | 0.00 | 0.00 | 99 | 1024.7 |
| 20260507055057 | 31 | 342 | 2.0 | 4.0 | 0.00 | 0.00 | 0.00 | 99 | 1024.7 |
| 20260507053608 | 31 | 0 | 2.0 | 4.0 | 0.00 | 0.00 | 0.00 | 99 | 1024.7 |
| 20260507052607 | 31 | 0 | 2.0 | 3.0 | 0.00 | 0.00 | 0.00 | 99 | 1024.7 |
| 20260507051606 | 30 | 0 | 2.0 | 3.0 | 0.00 | 0.00 | 0.00 | 99 | 1024.5 |
| 20260507050606 | 31 | 0 | 2.0 | 4.0 | 0.00 | 0.00 | 0.00 | 99 | 1024.5 |
| 20260507045606 | 31 | 347 | 2.0 | 3.0 | 0.00 | 0.00 | 0.00 | 99 | 1024.4 |
| 20260507044605 | 31 | 333 | 1.0 | 2.0 | 0.00 | 0.00 | 0.00 | 99 | 1024.4 |
| 20260507044049 | 31 | 326 | 2.0 | 2.0 | 0.00 | 0.00 | 0.00 | 99 | 1024.4 |
| 20260507042552 | 31 | 331 | 2.0 | 3.0 | 0.00 | 0.00 | 0.00 | 99 | 1024.5 |
| 20260507042026 | 31 | 349 | 1.0 | 3.0 | 0.00 | 0.00 | 0.00 | 99 | 1024.4 |
| 20260507040554 | 32 | 355 | 1.0 | 3.0 | 0.00 | 0.00 | 0.00 | 99 | 1024.5 |
| 20260507035553 | 32 | 0 | 1.0 | 2.0 | 0.00 | 0.00 | 0.00 | 99 | 1024.4 |
| 20260507034553 | 32 | 339 | 1.0 | 2.0 | 0.00 | 0.00 | 0.00 | 99 | 1024.4 |
| 20260507033553 | 33 | 344 | 1.0 | 2.0 | 0.00 | 0.00 | 0.00 | 99 | 1024.4 |
| 20260507032554 | 33 | 322 | 1.0 | 3.0 | 0.00 | 0.00 | 0.00 | 99 | 1024.5 |
| 20260507031554 | 33 | 282 | 1.0 | 3.0 | 0.00 | 0.00 | 0.00 | 99 | 1024.5 |
| 20260507031028 | 33 | 178 | 1.0 | 3.0 | 0.00 | 0.00 | 0.00 | 99 | 1024.6 |
| 20260507025540 | 33 | 235 | 2.0 | 4.0 | 0.00 | 0.00 | 0.00 | 99 | 1024.6 |
| 20260507024526 | 34 | 190 | 3.0 | 8.0 | 0.00 | 0.00 | 0.00 | 99 | 1024.6 |
| 20260507023524 | 34 | 148 | 4.0 | 13.0 | 0.00 | 0.00 | 0.00 | 99 | 1024.6 |
| 20260507022524 | 34 | 155 | 2.0 | 4.0 | 0.00 | 0.00 | 0.00 | 99 | 1024.6 |
| 20260507021923 | 35 | 220 | 2.0 | 11.0 | 0.00 | 0.00 | 0.00 | 99 | 1024.7 |
| 20260507021549 | 35 | 21 | 2.0 | 7.0 | 0.00 | 0.00 | 0.00 | 99 | 1024.7 |
| 20260507015518 | 35 | 175 | 7.0 | 16.0 | 0.00 | 0.00 | 0.00 | 99 | 1024.9 |
| 20260507014515 | 36 | 141 | 8.0 | 13.0 | 0.00 | 0.00 | 0.00 | 99 | 1024.9 |
| 20260507013515 | 36 | 172 | 6.0 | 11.0 | 0.00 | 0.00 | 0.00 | 99 | 1025.0 |